Time;durP1;ratioP1;P1;durP2;ratioP2;P2;SDS_P1;SDS_P2;PMS_P1;PMS_P2;Temp;Humidity;BMP_temperature;BMP_pressure;BME280_temperature;BME280_humidity;BME280_pressure;Samples;Min_cycle;Max_cycle;Signal;HPM_P1;HPM_P2
2023/10/06 00:02:30;;;;;;;0.20;0.20;;;;;;;17.76;100.00;102427.53;10444153;28;20053;-77
2023/10/06 00:07:33;;;;;;;0.17;0.17;;;;;;;17.36;100.00;102433.63;10459626;28;20051;-77
2023/10/06 00:12:35;;;;;;;0.35;0.25;;;;;;;17.27;100.00;102426.50;10460095;28;20514;-77
2023/10/06 00:17:37;;;;;;;0.93;0.88;;;;;;;16.94;100.00;102422.28;10462120;28;20049;-77
2023/10/06 00:22:39;;;;;;;0.80;0.73;;;;;;;17.02;100.00;102425.06;10467552;28;20103;-77
2023/10/06 00:27:41;;;;;;;0.88;0.75;;;;;;;17.07;100.00;102426.94;10475981;28;20045;-77
2023/10/06 00:32:46;;;;;;;0.70;0.52;;;;;;;17.18;100.00;102416.75;10458327;28;20480;-77
2023/10/06 00:37:50;;;;;;;1.15;0.57;;;;;;;16.86;100.00;102408.19;10448557;28;20049;-77
2023/10/06 00:42:56;;;;;;;0.50;0.38;;;;;;;17.25;100.00;102417.75;10442672;28;20057;-77
2023/10/06 00:47:59;;;;;;;0.50;0.43;;;;;;;16.67;100.00;102405.13;10460199;28;20044;-77
2023/10/06 00:53:04;;;;;;;0.10;0.10;;;;;;;17.10;100.00;102413.97;10460949;28;20151;-77
2023/10/06 00:58:10;;;;;;;0.28;0.28;;;;;;;16.73;100.00;102407.84;10461780;28;20041;-77
2023/10/06 01:03:14;;;;;;;0.68;0.52;;;;;;;16.63;100.00;102385.06;10450660;28;20118;-77
2023/10/06 01:08:16;;;;;;;0.65;0.38;;;;;;;16.72;100.00;102384.41;10468898;28;20041;-77
2023/10/06 01:13:22;;;;;;;1.45;0.50;;;;;;;16.84;100.00;102378.63;10451889;28;20060;-77
2023/10/06 01:18:27;;;;;;;11.60;0.77;;;;;;;16.83;100.00;102376.84;10464767;28;20136;-77
2023/10/06 01:23:33;;;;;;;0.65;0.40;;;;;;;16.65;100.00;102372.97;10444631;28;20102;-77
2023/10/06 01:28:35;;;;;;;0.55;0.40;;;;;;;16.83;100.00;102377.72;10444036;28;20403;-77
2023/10/06 01:33:37;;;;;;;0.68;0.40;;;;;;;16.89;100.00;102379.59;10458982;28;20049;-77
2023/10/06 01:38:44;;;;;;;0.50;0.40;;;;;;;16.94;100.00;102365.03;10460673;28;20500;-77
2023/10/06 01:43:46;;;;;;;0.82;0.40;;;;;;;16.65;100.00;102365.16;10461321;28;20056;-78
2023/10/06 01:48:48;;;;;;;0.75;0.57;;;;;;;16.98;100.00;102359.03;10456774;28;20072;-77
2023/10/06 01:53:50;;;;;;;1.00;0.60;;;;;;;16.77;100.00;102344.66;10458372;28;20045;-76
2023/10/06 01:58:52;;;;;;;1.35;1.17;;;;;;;17.10;100.00;102341.06;10461093;28;20041;-76
2023/10/06 02:03:55;;;;;;;0.65;0.63;;;;;;;16.74;100.00;102339.34;10443305;28;20392;-77
2023/10/06 02:08:56;;;;;;;0.47;0.47;;;;;;;16.73;100.00;102349.75;10426951;28;20429;-78
2023/10/06 02:13:59;;;;;;;0.60;0.25;;;;;;;16.87;100.00;102345.72;10455934;28;20546;-77
2023/10/06 02:19:02;;;;;;;0.43;0.43;;;;;;;16.63;100.00;102354.72;10456587;28;20041;-77
2023/10/06 02:24:05;;;;;;;6.00;1.60;;;;;;;17.04;100.00;102343.53;10479272;28;20052;-78
2023/10/06 02:29:22;;;;;;;0.40;0.40;;;;;;;16.79;100.00;102349.88;10465606;28;20037;-78
2023/10/06 02:34:35;;;;;;;1.35;0.80;;;;;;;16.90;100.00;102350.13;10476693;28;20135;-77
2023/10/06 02:39:38;;;;;;;0.35;0.30;;;;;;;16.71;100.00;102359.22;10457735;28;20041;-78
2023/10/06 02:44:41;;;;;;;2.08;0.85;;;;;;;16.63;100.00;102348.66;10473466;28;20065;-78
2023/10/06 02:49:48;;;;;;;0.88;0.70;;;;;;;16.59;100.00;102346.78;10475846;28;20041;-78
2023/10/06 02:55:08;;;;;;;0.80;0.80;;;;;;;16.44;100.00;102332.56;10472407;28;20041;-77
2023/10/06 03:05:39;;;;;;;0.57;0.43;;;;;;;16.32;100.00;102317.53;10476277;28;20063;-78
2023/10/06 03:10:42;;;;;;;0.17;0.17;;;;;;;16.83;100.00;102320.47;10464872;28;20045;-78
2023/10/06 03:15:45;;;;;;;2.08;0.95;;;;;;;16.90;100.00;102317.16;10467508;28;20492;-78
2023/10/06 03:21:13;;;;;;;0.50;0.50;;;;;;;16.75;100.00;102315.09;10462801;28;20049;-77
2023/10/06 03:31:28;;;;;;;0.95;0.75;;;;;;;16.85;100.00;102310.09;10472492;28;20140;-77
2023/10/06 03:36:46;;;;;;;4.78;0.30;;;;;;;16.98;100.00;102319.97;10449420;28;20424;-78
2023/10/06 03:41:55;;;;;;;0.38;0.28;;;;;;;17.03;100.00;102326.16;10457726;28;20049;-77
2023/10/06 03:47:01;;;;;;;0.30;0.30;;;;;;;16.94;100.00;102315.56;10477635;28;20047;-78
2023/10/06 03:52:09;;;;;;;1.30;0.85;;;;;;;16.31;100.00;102302.78;10475468;28;20502;-79
2023/10/06 03:57:15;;;;;;;0.30;0.17;;;;;;;16.56;100.00;102290.38;10475777;28;20048;-79
2023/10/06 04:02:19;;;;;;;0.32;0.30;;;;;;;16.23;100.00;102285.25;10476817;28;20045;-78
2023/10/06 04:07:23;;;;;;;2.75;0.85;;;;;;;16.32;100.00;102290.69;10480046;28;20045;-78
2023/10/06 04:12:25;;;;;;;1.10;0.82;;;;;;;16.32;100.00;102296.75;10484250;28;20041;-77
2023/10/06 04:17:29;;;;;;;0.30;0.28;;;;;;;16.32;100.00;102281.13;10486238;28;20562;-78
2023/10/06 04:22:36;;;;;;;0.20;0.20;;;;;;;16.52;100.00;102270.34;10487068;28;20056;-78
2023/10/06 04:27:38;;;;;;;1.35;0.73;;;;;;;16.44;100.00;102285.75;10466694;28;20045;-78
2023/10/06 04:32:40;;;;;;;0.10;0.10;;;;;;;16.32;100.00;102281.13;10488416;28;20069;-78
2023/10/06 04:37:42;;;;;;;1.83;1.02;;;;;;;16.59;100.00;102280.03;10479258;28;20051;-78
2023/10/06 04:42:45;;;;;;;13.80;0.55;;;;;;;16.41;100.00;102264.91;10467278;28;20055;-78
2023/10/06 04:47:47;;;;;;;0.43;0.15;;;;;;;16.34;100.00;102273.41;10481293;28;20523;-77
2023/10/06 04:52:49;;;;;;;0.75;0.47;;;;;;;16.10;100.00;102252.84;10460447;28;20059;-78
2023/10/06 04:57:51;;;;;;;0.75;0.75;;;;;;;16.10;100.00;102269.34;10468032;28;20041;-78
2023/10/06 05:02:53;;;;;;;1.08;0.40;;;;;;;16.67;100.00;102267.19;10472640;28;20496;-78
2023/10/06 05:07:56;;;;;;;0.45;0.30;;;;;;;16.58;100.00;102265.28;10469790;28;20392;-78
2023/10/06 05:13:06;;;;;;;1.55;0.73;;;;;;;16.40;100.00;102277.84;10468978;28;20063;-79
2023/10/06 05:18:13;;;;;;;1.48;1.27;;;;;;;16.53;100.00;102264.28;10466608;28;20129;-78
2023/10/06 05:23:15;;;;;;;0.43;0.40;;;;;;;16.67;100.00;102268.94;10466507;28;20077;-78
2023/10/06 05:28:17;;;;;;;0.65;0.40;;;;;;;16.42;100.00;102256.22;10466677;28;20037;-78
2023/10/06 05:33:21;;;;;;;1.00;0.45;;;;;;;16.43;100.00;102250.19;10427984;28;20045;-78
2023/10/06 05:38:24;;;;;;;1.23;1.02;;;;;;;16.39;100.00;102253.56;10463876;28;20404;-77
2023/10/06 05:43:30;;;;;;;0.77;0.57;;;;;;;16.10;100.00;102242.44;10440794;28;20183;-78
2023/10/06 05:48:34;;;;;;;0.32;0.20;;;;;;;16.41;100.00;102254.50;10470605;28;20029;-78
2023/10/06 05:53:38;;;;;;;1.20;0.68;;;;;;;16.05;100.00;102257.94;10465300;28;20059;-79
2023/10/06 05:58:43;;;;;;;1.17;0.90;;;;;;;16.27;100.00;102261.09;10451827;28;20049;-78
2023/10/06 06:03:45;;;;;;;4.88;0.98;;;;;;;16.58;100.00;102256.56;10470172;28;20123;-78
2023/10/06 06:08:49;;;;;;;0.60;0.60;;;;;;;16.80;100.00;102253.59;10460276;28;20053;-78
2023/10/06 06:13:52;;;;;;;1.45;0.88;;;;;;;16.95;100.00;102252.22;10454039;28;20056;-78
2023/10/06 06:19:14;;;;;;;1.50;0.80;;;;;;;17.05;100.00;102246.34;10471325;28;20048;-78
2023/10/06 06:24:20;;;;;;;1.17;1.08;;;;;;;17.15;100.00;102254.38;10452109;28;20048;-78
2023/10/06 06:29:22;;;;;;;0.75;0.40;;;;;;;17.28;100.00;102259.81;10442168;28;20570;-78
2023/10/06 06:34:24;;;;;;;3.10;1.25;;;;;;;17.61;100.00;102263.03;10463813;28;20550;-79
2023/10/06 06:39:27;;;;;;;0.35;0.35;;;;;;;17.94;100.00;102274.94;10464858;28;20045;-78
2023/10/06 06:44:30;;;;;;;2.60;0.98;;;;;;;17.73;100.00;102276.31;10450658;28;20497;-78
2023/10/06 06:49:31;;;;;;;0.35;0.35;;;;;;;18.25;100.00;102275.47;10451694;28;20476;-78
2023/10/06 06:54:37;;;;;;;0.43;0.30;;;;;;;17.98;100.00;102270.69;10462481;28;20063;-78
2023/10/06 06:59:39;;;;;;;0.28;0.20;;;;;;;17.28;100.00;102267.63;10467007;28;20049;-78
2023/10/06 07:04:41;;;;;;;0.32;0.22;;;;;;;17.47;100.00;102256.69;10449936;28;20053;-78
2023/10/06 07:09:43;;;;;;;0.13;0.13;;;;;;;18.16;100.00;102267.50;10471197;28;20103;-77
2023/10/06 07:14:45;;;;;;;0.75;0.47;;;;;;;18.34;100.00;102274.72;10454751;28;20049;-78
2023/10/06 07:19:48;;;;;;;23.63;0.50;;;;;;;18.07;100.00;102268.22;10470506;28;20069;-77
2023/10/06 07:24:55;;;;;;;2.28;0.50;;;;;;;17.92;100.00;102269.69;10456376;28;20155;-79
2023/10/06 07:29:58;;;;;;;1.27;0.65;;;;;;;18.18;100.00;102284.91;10464089;28;20084;-78
2023/10/06 07:35:01;;;;;;;0.32;0.20;;;;;;;18.03;100.00;102275.13;10447486;28;20067;-79
2023/10/06 07:40:05;;;;;;;1.10;0.85;;;;;;;18.06;100.00;102283.00;10463074;28;20073;-78
2023/10/06 07:45:08;;;;;;;0.10;0.10;;;;;;;18.20;100.00;102292.78;10461789;28;20048;-78
2023/10/06 07:50:13;;;;;;;3.83;0.20;;;;;;;18.38;100.00;102308.72;10460468;28;20086;-78
2023/10/06 07:55:16;;;;;;;1.73;0.45;;;;;;;19.71;100.00;102308.72;10426994;28;20151;-78
2023/10/06 08:00:38;;;;;;;0.55;0.28;;;;;;;19.49;100.00;102298.03;10460945;28;20395;-77
2023/10/06 08:05:41;;;;;;;1.63;0.22;;;;;;;19.39;100.00;102293.59;10440322;28;20052;-77
2023/10/06 08:10:43;;;;;;;0.40;0.30;;;;;;;18.86;100.00;102287.69;10459054;28;20043;-77
2023/10/06 08:15:45;;;;;;;0.55;0.28;;;;;;;20.47;100.00;102276.25;10457729;28;20047;-78
2023/10/06 08:20:47;;;;;;;0.00;0.00;;;;;;;20.17;100.00;102297.88;10456300;28;20047;-78
2023/10/06 08:25:52;;;;;;;0.63;0.35;;;;;;;19.99;100.00;102280.28;10456505;28;20053;-77
2023/10/06 08:31:02;;;;;;;0.73;0.43;;;;;;;19.99;100.00;102288.13;10444727;28;20045;-78
2023/10/06 08:36:08;;;;;;;0.10;0.10;;;;;;;21.18;100.00;102276.66;10455864;28;20041;-76
2023/10/06 08:41:10;;;;;;;0.52;0.40;;;;;;;20.47;100.00;102280.63;10440865;28;20041;-77
2023/10/06 08:46:15;;;;;;;0.40;0.38;;;;;;;20.72;100.00;102260.69;10457457;28;20087;-77
2023/10/06 08:51:22;;;;;;;0.30;0.30;;;;;;;20.80;100.00;102271.22;10458310;28;20048;-76
2023/10/06 08:56:24;;;;;;;1.00;0.90;;;;;;;21.26;100.00;102267.94;10430337;28;20044;-77
2023/10/06 09:01:28;;;;;;;0.17;0.10;;;;;;;20.78;100.00;102271.25;10440749;28;20052;-77
2023/10/06 09:06:30;;;;;;;0.50;0.35;;;;;;;20.46;100.00;102264.03;10458413;28;20045;-77
2023/10/06 09:11:40;;;;;;;0.25;0.25;;;;;;;20.91;100.00;102262.56;10457334;28;20045;-76
2023/10/06 09:16:52;;;;;;;2.33;0.40;;;;;;;21.11;100.00;102274.84;10438067;28;20045;-77
2023/10/06 09:22:00;;;;;;;3.30;0.28;;;;;;;21.36;100.00;102274.94;10439196;28;20419;-77
2023/10/06 09:27:25;;;;;;;0.87;0.40;;;;;;;21.16;100.00;102278.41;10456860;28;20373;-77
2023/10/06 09:32:27;;;;;;;0.73;0.30;;;;;;;20.47;100.00;102265.78;10450363;28;20044;-78
2023/10/06 09:37:29;;;;;;;0.70;0.43;;;;;;;21.20;100.00;102256.56;10455248;28;20427;-77
2023/10/06 09:42:33;;;;;;;2.05;1.65;;;;;;;21.16;100.00;102253.91;10455409;28;20049;-77
2023/10/06 09:47:38;;;;;;;2.90;0.82;;;;;;;21.82;100.00;102254.09;10455477;28;20462;-76
2023/10/06 09:52:43;;;;;;;0.80;0.57;;;;;;;22.96;100.00;102260.03;10454710;28;20143;-77
2023/10/06 09:57:47;;;;;;;0.10;0.00;;;;;;;23.10;100.00;102265.19;10438335;28;20139;-77
2023/10/06 10:02:50;;;;;;;3.47;0.32;;;;;;;22.80;100.00;102252.19;10454255;28;20462;-76
2023/10/06 10:07:54;;;;;;;0.40;0.40;;;;;;;23.21;100.00;102246.78;10454477;28;20048;-76
2023/10/06 10:13:07;;;;;;;10.98;0.63;;;;;;;21.92;100.00;102254.09;10438264;28;20103;-77
2023/10/06 10:18:29;;;;;;;0.10;0.10;;;;;;;23.25;100.00;102253.78;10423424;28;20071;-77
2023/10/06 10:23:31;;;;;;;0.40;0.30;;;;;;;23.31;100.00;102242.34;10454023;28;20110;-79
2023/10/06 10:28:33;;;;;;;0.10;0.10;;;;;;;22.58;100.00;102240.03;10425971;28;20481;-77
2023/10/06 10:33:37;;;;;;;1.05;0.80;;;;;;;22.32;100.00;102233.03;10427753;28;20037;-77
2023/10/06 10:38:41;;;;;;;0.47;0.40;;;;;;;23.67;100.00;102224.56;10462534;28;20041;-77
2023/10/06 10:43:48;;;;;;;0.28;0.25;;;;;;;23.81;100.00;102216.53;10443106;28;20049;-78
2023/10/06 10:48:52;;;;;;;0.38;0.32;;;;;;;22.92;100.00;102209.22;10461901;28;20140;-78
2023/10/06 10:53:54;;;;;;;0.10;0.10;;;;;;;22.98;100.00;102216.19;10445445;28;20052;-77
2023/10/06 10:58:56;;;;;;;0.00;0.00;;;;;;;24.62;100.00;102212.22;10461617;28;20059;-77
2023/10/06 11:14:40;;;;;;;0.30;0.17;;;;;;;22.64;100.00;102197.97;10461065;28;20140;-77
2023/10/06 11:19:43;;;;;;;0.52;0.25;;;;;;;22.86;100.00;102180.34;10460933;28;20479;-77
2023/10/06 11:24:50;;;;;;;0.30;0.05;;;;;;;23.11;100.00;102207.38;10456373;28;20496;-78
2023/10/06 11:29:53;;;;;;;0.95;0.43;;;;;;;23.54;100.00;102203.59;10460647;28;20392;-78
2023/10/06 11:34:55;;;;;;;0.90;0.63;;;;;;;23.28;100.00;102201.16;10459902;28;20053;-77
2023/10/06 11:39:57;;;;;;;0.03;0.03;;;;;;;23.28;100.00;102195.91;10442697;28;20407;-78
2023/10/06 11:45:00;;;;;;;0.32;0.30;;;;;;;23.53;100.00;102193.09;10459093;28;20048;-77
2023/10/06 11:50:03;;;;;;;0.20;0.15;;;;;;;23.55;100.00;102197.44;10442405;28;20033;-78
2023/10/06 11:55:14;;;;;;;0.22;0.20;;;;;;;24.68;100.00;102172.66;10459792;28;20503;-78
2023/10/06 12:00:17;;;;;;;0.00;0.00;;;;;;;24.22;100.00;102173.19;10459246;28;20161;-77
2023/10/06 12:05:24;;;;;;;1.40;0.98;;;;;;;23.86;100.00;102183.19;10459352;28;20140;-78
2023/10/06 12:10:26;;;;;;;1.92;0.20;;;;;;;24.34;100.00;102154.59;10442716;28;20077;-78
2023/10/06 12:15:29;;;;;;;0.10;0.10;;;;;;;24.03;100.00;102146.19;10459061;28;20045;-78
2023/10/06 12:20:35;;;;;;;0.03;0.03;;;;;;;24.67;100.00;102152.47;10458386;28;20044;-77
2023/10/06 12:25:37;;;;;;;0.00;0.00;;;;;;;24.08;100.00;102158.41;10442016;28;20389;-78
2023/10/06 12:30:39;;;;;;;0.30;0.30;;;;;;;23.61;100.00;102163.19;10425332;28;20044;-78
2023/10/06 12:35:41;;;;;;;0.03;0.03;;;;;;;24.73;100.00;102155.91;10441479;28;20084;-77
2023/10/06 12:40:46;;;;;;;0.10;0.10;;;;;;;24.39;100.00;102146.66;10457915;28;20135;-78
2023/10/06 12:45:50;;;;;;;0.10;0.10;;;;;;;24.00;100.00;102133.94;10458998;28;20045;-77
2023/10/06 12:50:51;;;;;;;0.90;0.30;;;;;;;24.01;100.00;102135.69;10440827;28;20472;-77
2023/10/06 12:55:56;;;;;;;2.90;0.35;;;;;;;24.03;100.00;102141.78;10456482;28;20580;-77
2023/10/06 13:00:58;;;;;;;0.35;0.35;;;;;;;24.85;100.00;102140.81;10440529;28;20041;-77
2023/10/06 13:06:03;;;;;;;0.20;0.17;;;;;;;24.51;100.00;102132.47;10456655;28;20446;-76
2023/10/06 13:11:06;;;;;;;0.75;0.10;;;;;;;24.46;100.00;102136.91;10456489;28;20659;-77
2023/10/06 13:16:09;;;;;;;0.43;0.40;;;;;;;24.60;100.00;102121.81;10456350;28;20041;-77
2023/10/06 13:21:11;;;;;;;0.10;0.10;;;;;;;24.64;100.00;102120.00;10439575;28;20061;-76
2023/10/06 13:26:13;;;;;;;0.20;0.15;;;;;;;24.22;100.00;102118.75;10437966;28;20488;-76
2023/10/06 13:31:36;;;;;;;0.30;0.30;;;;;;;24.11;100.00;102117.13;10455747;28;20442;-76
2023/10/06 13:36:41;;;;;;;0.63;0.50;;;;;;;23.48;100.00;102111.59;10454635;28;20053;-78
2023/10/06 13:41:43;;;;;;;1.20;0.52;;;;;;;24.51;100.00;102119.28;10454112;28;20037;-77
2023/10/06 13:46:45;;;;;;;0.32;0.30;;;;;;;24.11;100.00;102106.59;10448012;28;20083;-77
2023/10/06 13:51:47;;;;;;;0.60;0.20;;;;;;;24.42;100.00;102106.22;10446002;28;20064;-76
2023/10/06 13:56:50;;;;;;;0.00;0.00;;;;;;;24.27;100.00;102109.94;10453958;28;20040;-76
2023/10/06 14:01:52;;;;;;;0.17;0.17;;;;;;;24.22;100.00;102112.63;10453701;28;20454;-77
2023/10/06 14:06:55;;;;;;;0.30;0.10;;;;;;;24.43;100.00;102113.25;10433833;28;20400;-77
2023/10/06 14:11:57;;;;;;;1.75;0.10;;;;;;;24.53;100.00;102113.09;10454261;28;20045;-77
2023/10/06 14:17:02;;;;;;;0.43;0.25;;;;;;;24.97;100.00;102113.41;10411512;28;20044;-76
2023/10/06 14:22:05;;;;;;;0.17;0.08;;;;;;;25.14;100.00;102093.78;10454449;28;20044;-77
2023/10/06 14:27:09;;;;;;;0.38;0.10;;;;;;;24.87;100.00;102095.97;10453614;28;20041;-76
2023/10/06 14:37:42;;;;;;;0.22;0.15;;;;;;;24.57;100.00;102092.84;10454094;28;20087;-78
2023/10/06 14:48:04;;;;;;;0.13;0.00;;;;;;;24.17;100.00;102088.09;10454324;28;20502;-77
2023/10/06 14:53:06;;;;;;;0.32;0.30;;;;;;;24.34;100.00;102080.00;10443744;28;20045;-78
2023/10/06 14:58:08;;;;;;;0.03;0.03;;;;;;;24.34;100.00;102074.75;10436241;28;20051;-77
2023/10/06 15:03:10;;;;;;;1.25;0.38;;;;;;;24.35;100.00;102074.72;10436495;28;20443;-77
2023/10/06 15:08:12;;;;;;;0.20;0.20;;;;;;;23.98;100.00;102067.28;10452785;28;20063;-77
2023/10/06 15:13:14;;;;;;;0.10;0.10;;;;;;;24.33;100.00;102070.34;10452745;28;20074;-77
2023/10/06 15:18:18;;;;;;;0.32;0.30;;;;;;;24.16;100.00;102070.59;10453112;28;20037;-76
2023/10/06 15:23:23;;;;;;;0.60;0.57;;;;;;;24.17;100.00;102067.03;10436055;28;20056;-76
2023/10/06 15:28:24;;;;;;;0.00;0.00;;;;;;;23.97;100.00;102073.41;10460353;28;20132;-76
2023/10/06 15:33:40;;;;;;;0.00;0.00;;;;;;;24.33;100.00;102068.59;10431656;28;20052;-77
2023/10/06 15:38:42;;;;;;;3.63;1.27;;;;;;;24.15;100.00;102059.16;10459575;28;20069;-77
2023/10/06 15:43:48;;;;;;;0.08;0.08;;;;;;;23.88;100.00;102066.47;10459756;28;20510;-77
2023/10/06 15:48:55;;;;;;;0.55;0.38;;;;;;;24.04;100.00;102069.81;10459521;28;20098;-76
2023/10/06 15:53:57;;;;;;;0.13;0.10;;;;;;;23.96;100.00;102074.31;10459203;28;20053;-78
2023/10/06 15:58:58;;;;;;;0.20;0.20;;;;;;;23.85;100.00;102069.13;10457953;28;20041;-76
2023/10/06 16:04:02;;;;;;;0.40;0.40;;;;;;;23.68;100.00;102064.06;10458364;28;20045;-76
2023/10/06 16:09:07;;;;;;;0.10;0.10;;;;;;;23.64;100.00;102062.38;10448607;28;20045;-77
2023/10/06 16:14:10;;;;;;;0.00;0.00;;;;;;;23.71;100.00;102058.78;10458344;28;20044;-76
2023/10/06 16:19:13;;;;;;;0.32;0.28;;;;;;;23.22;100.00;102059.22;10459592;28;20037;-77
2023/10/06 16:24:17;;;;;;;4.07;0.52;;;;;;;22.96;100.00;102052.41;10441220;28;20174;-77
2023/10/06 16:29:21;;;;;;;0.47;0.38;;;;;;;23.07;100.00;102050.56;10441219;28;20056;-76
2023/10/06 16:34:29;;;;;;;0.28;0.28;;;;;;;22.86;100.00;102040.22;10421114;28;20057;-77
2023/10/06 16:39:35;;;;;;;0.20;0.20;;;;;;;22.96;100.00;102041.91;10452527;28;20102;-77
2023/10/06 16:44:37;;;;;;;0.15;0.15;;;;;;;22.72;100.00;102043.81;10456754;28;20048;-76
2023/10/06 16:49:39;;;;;;;0.38;0.20;;;;;;;22.59;100.00;102036.91;10456837;28;20094;-77
2023/10/06 16:54:44;;;;;;;0.17;0.17;;;;;;;22.84;100.00;102040.25;10439693;28;20045;-77
2023/10/06 16:59:46;;;;;;;1.38;0.93;;;;;;;23.04;100.00;102045.34;10454452;28;20051;-77
2023/10/06 17:04:47;;;;;;;0.52;0.10;;;;;;;23.06;100.00;102054.06;10456006;28;20057;-77
2023/10/06 17:09:49;;;;;;;0.30;0.28;;;;;;;23.03;100.00;102051.50;10455847;28;20059;-77
2023/10/06 17:14:54;;;;;;;0.55;0.40;;;;;;;22.59;100.00;102055.31;10455709;28;20139;-76
2023/10/06 17:19:56;;;;;;;1.65;0.55;;;;;;;22.93;100.00;102044.53;10456986;28;20075;-76
2023/10/06 17:24:58;;;;;;;1.50;0.30;;;;;;;22.92;100.00;102045.44;10455644;28;20051;-76
2023/10/06 17:29:59;;;;;;;0.00;0.00;;;;;;;22.65;100.00;102045.59;10455163;28;20059;-75
2023/10/06 17:35:01;;;;;;;0.85;0.65;;;;;;;22.39;100.00;102051.00;10455115;28;20040;-76
2023/10/06 17:40:04;;;;;;;1.75;0.30;;;;;;;22.75;100.00;102049.03;10454971;28;20047;-76
2023/10/06 17:45:06;;;;;;;4.80;0.30;;;;;;;22.30;100.00;102045.81;10454697;28;20044;-76
2023/10/06 17:50:11;;;;;;;1.40;0.47;;;;;;;22.66;100.00;102043.88;10438045;28;20503;-76
2023/10/06 17:55:15;;;;;;;0.20;0.20;;;;;;;22.39;100.00;102045.75;10454350;28;20488;-76
2023/10/06 18:00:17;;;;;;;0.98;0.60;;;;;;;22.43;100.00;102052.75;10454435;28;20570;-76
2023/10/06 18:05:19;;;;;;;0.60;0.35;;;;;;;22.33;100.00;102056.28;10454095;28;20041;-76
2023/10/06 18:10:23;;;;;;;4.40;0.98;;;;;;;22.08;100.00;102047.63;10445711;28;20045;-76
2023/10/06 18:15:25;;;;;;;0.20;0.10;;;;;;;22.54;100.00;102057.06;10411449;28;20045;-77
2023/10/06 18:20:27;;;;;;;0.10;0.10;;;;;;;22.30;100.00;102056.31;10454039;28;20041;-76
2023/10/06 18:25:34;;;;;;;0.50;0.20;;;;;;;22.06;100.00;102042.41;10454031;28;20519;-77
2023/10/06 18:30:37;;;;;;;1.73;0.85;;;;;;;22.06;100.00;102050.28;10454227;28;20072;-76
2023/10/06 18:35:38;;;;;;;0.45;0.20;;;;;;;22.26;100.00;102054.56;10453622;28;20057;-76
2023/10/06 18:40:50;;;;;;;5.78;0.55;;;;;;;21.87;100.00;102045.06;10437156;28;20041;-76
2023/10/06 18:45:55;;;;;;;0.28;0.22;;;;;;;21.83;100.00;102039.84;10453675;28;20045;-78
2023/10/06 18:51:00;;;;;;;0.10;0.10;;;;;;;22.10;100.00;102054.63;10453475;28;20040;-76
2023/10/06 18:56:04;;;;;;;0.82;0.28;;;;;;;22.02;100.00;102044.16;10410599;28;20497;-77
2023/10/06 19:01:06;;;;;;;0.30;0.20;;;;;;;21.96;100.00;102051.16;10440153;28;20029;-77
2023/10/06 19:06:13;;;;;;;0.30;0.30;;;;;;;21.47;100.00;102046.88;10460842;28;20075;-77
2023/10/06 19:11:16;;;;;;;0.70;0.40;;;;;;;21.70;100.00;102045.13;10443877;28;20037;-77
2023/10/06 19:16:19;;;;;;;0.60;0.32;;;;;;;21.78;100.00;102047.72;10460591;28;20052;-77
2023/10/06 19:21:23;;;;;;;0.20;0.20;;;;;;;21.77;100.00;102040.75;10460137;28;20040;-77
2023/10/06 19:26:25;;;;;;;2.00;0.80;;;;;;;21.53;100.00;102037.28;10460199;28;20056;-76
2023/10/06 19:31:28;;;;;;;0.85;0.38;;;;;;;21.10;100.00;102044.28;10420506;28;20053;-77
2023/10/06 19:36:34;;;;;;;0.38;0.30;;;;;;;21.78;100.00;102052.97;10456806;28;20084;-76
2023/10/06 19:41:49;;;;;;;0.88;0.32;;;;;;;21.58;100.00;102050.41;10461238;28;20033;-76
2023/10/06 19:46:50;;;;;;;0.20;0.20;;;;;;;21.51;100.00;102052.13;10458773;28;20045;-75
2023/10/06 19:51:57;;;;;;;0.45;0.25;;;;;;;21.63;100.00;102063.50;10441895;28;20041;-76
2023/10/06 19:56:59;;;;;;;0.10;0.10;;;;;;;21.63;100.00;102063.50;10432937;28;20522;-76
2023/10/06 20:02:05;;;;;;;1.00;0.68;;;;;;;21.86;100.00;102073.94;10439951;28;20049;-76
2023/10/06 20:07:08;;;;;;;0.10;0.10;;;;;;;21.29;100.00;102068.75;10440661;28;20508;-77
2023/10/06 20:12:10;;;;;;;0.45;0.22;;;;;;;21.43;100.00;102072.22;10441653;28;20044;-77
2023/10/06 20:17:14;;;;;;;0.65;0.10;;;;;;;21.51;100.00;102054.75;10441523;28;20522;-77
2023/10/06 20:22:16;;;;;;;0.52;0.43;;;;;;;21.63;100.00;102046.03;10458032;28;20040;-77
2023/10/06 20:27:18;;;;;;;0.30;0.20;;;;;;;21.47;100.00;102057.38;10414033;28;20041;-77
2023/10/06 20:32:19;;;;;;;0.32;0.22;;;;;;;21.48;100.00;102065.22;10457534;28;20045;-77
2023/10/06 20:37:21;;;;;;;0.03;0.03;;;;;;;21.83;100.00;102066.97;10422752;28;20144;-77
2023/10/06 20:42:23;;;;;;;0.20;0.10;;;;;;;21.65;100.00;102069.59;10410864;28;20095;-76
2023/10/06 20:47:25;;;;;;;0.20;0.20;;;;;;;21.40;100.00;102067.00;10432238;28;20053;-77
2023/10/06 20:52:28;;;;;;;0.22;0.15;;;;;;;21.41;100.00;102058.25;10471188;28;20037;-77
2023/10/06 20:57:29;;;;;;;0.85;0.73;;;;;;;20.92;100.00;102054.75;10456441;28;20053;-76
2023/10/06 21:02:31;;;;;;;1.75;0.47;;;;;;;21.12;100.00;102055.66;10414548;28;20129;-77
2023/10/06 21:07:34;;;;;;;0.10;0.10;;;;;;;21.16;100.00;102054.75;10454598;28;20558;-77
2023/10/06 21:12:37;;;;;;;1.55;0.40;;;;;;;21.20;100.00;102060.00;10446818;28;20045;-77
2023/10/06 21:17:41;;;;;;;0.75;0.32;;;;;;;21.36;100.00;102060.88;10454296;28;20060;-75
2023/10/06 21:22:43;;;;;;;0.22;0.22;;;;;;;21.17;100.00;102056.50;10455852;28;20048;-76
2023/10/06 21:27:45;;;;;;;1.30;0.52;;;;;;;21.14;100.00;102060.00;10455410;28;20045;-76
2023/10/06 21:32:47;;;;;;;0.30;0.30;;;;;;;21.00;100.00;102054.75;10456226;28;20503;-76
2023/10/06 21:37:49;;;;;;;1.00;0.40;;;;;;;21.04;100.00;102053.00;10454810;28;20060;-77
2023/10/06 21:42:51;;;;;;;0.35;0.35;;;;;;;20.97;100.00;102053.88;10438276;28;20087;-76
2023/10/06 21:47:52;;;;;;;1.02;0.82;;;;;;;21.15;100.00;102053.03;10454123;28;20487;-76
2023/10/06 21:52:54;;;;;;;0.10;0.10;;;;;;;20.76;100.00;102042.50;10454552;28;20045;-76
2023/10/06 21:57:55;;;;;;;0.10;0.10;;;;;;;20.79;100.00;102045.16;10454427;28;20055;-77
2023/10/06 22:02:58;;;;;;;0.55;0.13;;;;;;;20.77;100.00;102037.25;10454529;28;20063;-76
2023/10/06 22:08:00;;;;;;;0.10;0.10;;;;;;;20.81;100.00;102025.06;10453311;28;20045;-76
2023/10/06 22:13:03;;;;;;;1.02;0.95;;;;;;;20.46;100.00;102052.00;10453732;28;20075;-76
2023/10/06 22:18:05;;;;;;;1.90;0.40;;;;;;;20.39;100.00;102050.25;10435801;28;20049;-77
2023/10/06 22:23:07;;;;;;;2.03;0.68;;;;;;;20.24;100.00;102044.09;10452498;28;20488;-76
2023/10/06 22:28:09;;;;;;;0.80;0.40;;;;;;;20.42;100.00;102042.41;10434686;28;20059;-77
2023/10/06 22:33:11;;;;;;;0.00;0.00;;;;;;;20.25;100.00;102040.59;10459349;28;20053;-76
2023/10/06 22:38:12;;;;;;;0.45;0.30;;;;;;;20.21;100.00;102028.41;10460428;28;20037;-77
2023/10/06 22:43:14;;;;;;;0.57;0.43;;;;;;;20.17;100.00;102031.00;10442717;28;20385;-77
2023/10/06 22:48:16;;;;;;;1.35;0.38;;;;;;;20.23;100.00;102026.63;10442398;28;20045;-76
2023/10/06 22:53:17;;;;;;;0.10;0.10;;;;;;;20.01;100.00;102040.50;10442341;28;20072;-77
2023/10/06 22:58:19;;;;;;;0.10;0.10;;;;;;;19.82;100.00;102036.00;10438048;28;20407;-76
2023/10/06 23:03:21;;;;;;;0.65;0.32;;;;;;;20.04;100.00;102030.06;10450567;28;20102;-76
2023/10/06 23:08:22;;;;;;;0.28;0.15;;;;;;;19.84;100.00;102012.53;10417860;28;1208935;-76
2023/10/06 23:13:28;;;;;;;0.20;0.20;;;;;;;19.57;100.00;102010.59;10444316;28;20488;-77
2023/10/06 23:18:37;;;;;;;0.63;0.45;;;;;;;19.45;100.00;101999.19;10461094;28;20049;-77
2023/10/06 23:23:41;;;;;;;1.27;0.40;;;;;;;19.58;100.00;101999.28;10461839;28;20076;-77
2023/10/06 23:28:46;;;;;;;0.43;0.30;;;;;;;19.21;100.00;102010.34;10462220;28;20041;-77
2023/10/06 23:33:48;;;;;;;0.32;0.30;;;;;;;19.70;100.00;102016.75;10460658;28;20053;-78